createdAt,value
2022-09-04T00:00:50.439Z,5.17
2022-09-04T00:03:43.034Z,5.30
2022-09-04T00:06:31.166Z,5.43
2022-09-04T00:09:21.597Z,5.53
2022-09-04T00:12:09.802Z,6.43
2022-09-04T00:14:59.123Z,6.77
2022-09-04T00:17:47.816Z,5.93
2022-09-04T00:20:39.495Z,5.37
2022-09-04T00:23:28.879Z,5.03
2022-09-04T00:26:21.065Z,5.50
2022-09-04T00:29:14.087Z,5.47
2022-09-04T00:32:04.118Z,5.80
2022-09-04T00:34:58.473Z,5.37
2022-09-04T00:37:49.472Z,5.27
2022-09-04T00:40:38.509Z,5.53
2022-09-04T00:43:56.296Z,4.50
2022-09-04T00:46:52.011Z,5.23
2022-09-04T00:49:57.482Z,5.10
2022-09-04T00:52:58.248Z,4.93
2022-09-04T00:55:52.629Z,5.10
2022-09-04T00:58:46.444Z,5.13
2022-09-04T01:01:32.583Z,5.43
2022-09-04T01:04:36.313Z,5.63
2022-09-04T01:07:33.791Z,5.43
2022-09-04T01:10:41.134Z,6.07
2022-09-04T01:13:34.004Z,7.10
2022-09-04T01:16:25.413Z,6.37
2022-09-04T01:19:15.634Z,5.97
2022-09-04T01:22:09.881Z,5.03
2022-09-04T01:25:05.735Z,5.00
2022-09-04T01:27:57.782Z,5.73
2022-09-04T01:30:45.323Z,5.27
2022-09-04T01:33:34.617Z,5.27
2022-09-04T01:36:27.856Z,6.00
2022-09-04T01:39:14.491Z,5.33
2022-09-04T01:42:02.782Z,5.73
2022-09-04T01:44:50.878Z,5.87
2022-09-04T01:47:39.415Z,6.87
2022-09-04T01:50:27.197Z,6.97
2022-09-04T01:53:15.644Z,6.23
2022-09-04T01:56:08.687Z,6.40
2022-09-04T01:58:56.697Z,5.83
2022-09-04T02:01:49.321Z,6.03
2022-09-04T02:04:40.574Z,5.83
2022-09-04T02:07:30.058Z,5.70
2022-09-04T02:10:23.485Z,5.50
2022-09-04T02:13:15.059Z,5.60
2022-09-04T02:16:05.812Z,5.13
2022-09-04T02:19:00.720Z,4.93
2022-09-04T02:21:50.590Z,4.90
2022-09-04T02:24:39.457Z,5.77
2022-09-04T02:27:28.422Z,5.47
2022-09-04T02:30:16.732Z,4.67
2022-09-04T02:33:08.566Z,6.07
2022-09-04T02:36:00.893Z,5.43
2022-09-04T02:38:52.346Z,5.70
2022-09-04T02:41:39.965Z,6.00
2022-09-04T02:44:31.159Z,5.60
2022-09-04T02:47:22.582Z,6.23
2022-09-04T02:50:12.827Z,6.30
2022-09-04T02:53:05.683Z,6.57
2022-09-04T02:55:57.710Z,7.30
2022-09-04T02:58:51.230Z,7.37
2022-09-04T03:01:41.066Z,6.57
2022-09-04T03:04:31.856Z,6.30
2022-09-04T03:07:22.085Z,6.83
2022-09-04T03:10:12.754Z,7.00
2022-09-04T03:13:03.016Z,6.30
2022-09-04T03:15:52.039Z,7.37
2022-09-04T03:18:54.613Z,7.50
2022-09-04T03:21:42.921Z,7.00
2022-09-04T03:24:33.542Z,6.20
2022-09-04T03:27:21.745Z,6.93
2022-09-04T03:30:09.077Z,6.77
2022-09-04T03:33:02.861Z,6.13
2022-09-04T03:35:53.605Z,6.33
2022-09-04T03:38:45.342Z,6.33
2022-09-04T03:41:42.521Z,5.13
2022-09-04T03:44:32.784Z,6.37
2022-09-04T03:47:23.664Z,6.03
2022-09-04T03:50:16.641Z,5.70
2022-09-04T03:53:09.263Z,6.13
2022-09-04T03:56:09.891Z,5.70
2022-09-04T03:59:12.386Z,5.60
2022-09-04T04:02:06.631Z,6.43
2022-09-04T04:05:04.134Z,5.73
2022-09-04T04:07:56.182Z,5.97
2022-09-04T04:10:46.400Z,5.67
2022-09-04T04:13:55.748Z,6.43
2022-09-04T04:16:50.297Z,6.87
2022-09-04T04:19:48.942Z,7.27
2022-09-04T04:22:52.531Z,7.13
2022-09-04T04:25:44.005Z,7.00
2022-09-04T04:28:43.953Z,7.40
2022-09-04T04:31:38.723Z,6.90
2022-09-04T04:34:30.721Z,6.50
2022-09-04T04:37:21.413Z,7.13
2022-09-04T04:40:11.264Z,6.37
2022-09-04T04:43:02.383Z,6.03
2022-09-04T04:45:51.746Z,6.60
2022-09-04T04:48:47.465Z,6.73
2022-09-04T04:51:40.897Z,6.20
2022-09-04T04:54:40.685Z,6.43
2022-09-04T04:57:31.270Z,5.87
2022-09-04T05:00:25.252Z,6.10
2022-09-04T05:03:17.027Z,5.57
2022-09-04T05:06:07.165Z,5.80
2022-09-04T05:08:58.415Z,6.67
2022-09-04T05:11:50.151Z,6.23
2022-09-04T05:14:48.427Z,6.50
2022-09-04T05:17:37.480Z,6.50
2022-09-04T05:20:34.424Z,6.40
2022-09-04T05:23:24.927Z,6.10
2022-09-04T05:26:21.917Z,6.17
2022-09-04T05:29:12.556Z,6.00
2022-09-04T05:32:02.524Z,6.47
2022-09-04T05:35:01.018Z,5.87
2022-09-04T05:37:52.157Z,7.00
2022-09-04T05:40:47.144Z,6.47
2022-09-04T05:43:38.162Z,6.50
2022-09-04T05:46:31.946Z,6.10
2022-09-04T05:49:22.768Z,6.50
2022-09-04T05:52:27.250Z,6.03
2022-09-04T05:55:26.484Z,5.20
2022-09-04T05:58:30.646Z,6.33
2022-09-04T06:01:24.664Z,6.33
2022-09-04T06:04:22.024Z,6.50
2022-09-04T06:07:10.639Z,6.10
2022-09-04T06:10:00.713Z,6.50
2022-09-04T06:12:58.807Z,6.33
2022-09-04T06:15:49.965Z,6.50
2022-09-04T06:18:51.331Z,5.40
2022-09-04T06:21:47.800Z,5.93
2022-09-04T06:24:41.502Z,5.33
2022-09-04T06:27:39.253Z,6.20
2022-09-04T06:30:27.390Z,5.77
2022-09-04T06:33:19.912Z,6.17
2022-09-04T06:36:28.295Z,6.40
2022-09-04T06:39:32.587Z,5.37
2022-09-04T06:42:27.094Z,6.23
2022-09-04T06:45:20.679Z,5.43
2022-09-04T06:48:13.210Z,5.77
2022-09-04T06:51:08.177Z,6.00
2022-09-04T06:53:59.625Z,5.77
2022-09-04T06:56:55.911Z,5.93
2022-09-04T06:59:52.510Z,6.43
2022-09-04T07:02:47.338Z,6.00
2022-09-04T07:05:38.663Z,4.97
2022-09-04T07:08:30.873Z,5.10
2022-09-04T07:11:21.464Z,5.13
2022-09-04T07:14:20.125Z,3.77
2022-09-04T07:17:12.396Z,4.13
2022-09-04T07:20:04.650Z,4.53
2022-09-04T07:23:08.752Z,4.83
2022-09-04T07:26:00.706Z,3.97
2022-09-04T07:28:54.938Z,4.03
2022-09-04T07:31:43.223Z,4.17
2022-09-04T07:34:34.625Z,3.73
2022-09-04T07:37:25.099Z,3.10
2022-09-04T07:40:14.935Z,3.33
2022-09-04T07:43:08.000Z,3.03
2022-09-04T07:46:00.424Z,2.77
2022-09-04T07:48:50.886Z,2.47
2022-09-04T07:51:43.276Z,2.70
2022-09-04T07:54:41.606Z,2.70
2022-09-04T07:57:37.940Z,2.23
2022-09-04T08:00:25.546Z,2.60
2022-09-04T08:03:20.019Z,2.77
2022-09-04T08:06:14.240Z,2.90
2022-09-04T08:09:32.463Z,3.00
2022-09-04T08:12:33.430Z,2.40
2022-09-04T08:15:22.019Z,2.53
2022-09-04T08:18:16.792Z,2.40
2022-09-04T08:21:10.710Z,2.50
2022-09-04T08:24:15.016Z,2.30
2022-09-04T08:27:10.447Z,2.30
2022-09-04T08:30:04.133Z,2.63
2022-09-04T08:33:03.957Z,2.60
2022-09-04T08:35:53.715Z,2.60
2022-09-04T08:38:46.981Z,2.40
2022-09-04T08:41:51.038Z,2.57
2022-09-04T08:44:55.127Z,2.77
2022-09-04T08:47:53.646Z,3.50
2022-09-04T08:50:46.173Z,3.30
2022-09-04T08:53:52.402Z,3.57
2022-09-04T08:56:42.044Z,2.80
2022-09-04T08:59:37.219Z,3.77
2022-09-04T09:02:53.960Z,3.00
2022-09-04T09:06:02.147Z,3.20
2022-09-04T09:09:21.703Z,3.83
2022-09-04T09:12:19.161Z,2.97
2022-09-04T09:15:15.336Z,3.07
2022-09-04T09:18:02.627Z,3.03
2022-09-04T09:20:54.233Z,2.47
2022-09-04T09:23:56.019Z,2.77
2022-09-04T09:26:50.431Z,3.07
2022-09-04T09:29:51.588Z,2.57
2022-09-04T09:33:04.276Z,2.60
2022-09-04T09:36:14.883Z,2.83
2022-09-04T09:39:08.176Z,2.50
2022-09-04T09:42:15.770Z,2.33
2022-09-04T09:45:15.611Z,2.37
2022-09-04T09:48:11.799Z,2.47
2022-09-04T09:51:17.261Z,2.17
2022-09-04T09:54:22.376Z,2.70
2022-09-04T09:57:33.405Z,3.40
2022-09-04T10:00:22.872Z,2.67
2022-09-04T10:03:25.792Z,2.67
2022-09-04T10:06:29.864Z,2.70
2022-09-04T10:09:31.292Z,2.13
2022-09-04T10:12:42.210Z,2.50
2022-09-04T10:15:58.923Z,2.20
2022-09-04T10:18:53.631Z,2.40
2022-09-04T10:21:58.737Z,2.47
2022-09-04T10:24:59.942Z,2.40
2022-09-04T10:28:06.789Z,4.90
2022-09-04T10:31:08.995Z,5.80
2022-09-04T10:34:06.516Z,3.07
2022-09-04T10:36:59.572Z,3.57
2022-09-04T10:40:13.440Z,2.23
2022-09-04T10:43:10.343Z,1.93
2022-09-04T10:46:02.131Z,2.13
2022-09-04T10:49:07.218Z,1.97
2022-09-04T10:52:13.725Z,2.10
2022-09-04T10:55:15.193Z,2.57
2022-09-04T10:58:08.675Z,2.60
2022-09-04T11:01:14.146Z,2.00
2022-09-04T11:04:14.008Z,2.10
2022-09-04T11:07:15.216Z,2.13
2022-09-04T11:10:08.674Z,1.80
2022-09-04T11:13:12.975Z,1.70
2022-09-04T11:16:12.102Z,2.60
2022-09-04T11:19:20.951Z,3.33
2022-09-04T11:22:25.882Z,2.60
2022-09-04T11:25:30.146Z,1.97
2022-09-04T11:28:40.279Z,1.60
2022-09-04T11:31:42.416Z,2.20
2022-09-04T11:34:48.319Z,4.40
2022-09-04T11:38:07.851Z,1.90
2022-09-04T11:41:21.405Z,1.70
2022-09-04T11:44:26.252Z,1.63
2022-09-04T11:47:35.051Z,2.13
2022-09-04T11:50:35.199Z,1.83
2022-09-04T11:53:27.687Z,2.10
2022-09-04T11:56:26.026Z,2.00
2022-09-04T11:59:30.546Z,1.70
2022-09-04T12:02:29.097Z,2.10
2022-09-04T12:05:20.344Z,2.33
2022-09-04T12:08:16.847Z,1.90
2022-09-04T12:11:19.747Z,1.83
2022-09-04T12:14:12.198Z,1.90
2022-09-04T12:17:26.339Z,1.97
2022-09-04T12:20:24.238Z,2.10
2022-09-04T12:23:19.128Z,2.53
2022-09-04T12:26:29.515Z,1.93
2022-09-04T12:29:26.153Z,2.30
2022-09-04T12:32:30.952Z,2.10
2022-09-04T12:35:33.423Z,2.13
2022-09-04T12:38:26.500Z,1.90
2022-09-04T12:41:16.590Z,3.03
2022-09-04T12:44:08.692Z,1.90
2022-09-04T12:47:02.157Z,2.63
2022-09-04T12:49:58.259Z,1.90
2022-09-04T12:52:54.730Z,2.10
2022-09-04T12:55:47.022Z,2.33
2022-09-04T12:58:43.255Z,2.50
2022-09-04T13:01:37.619Z,2.40
2022-09-04T13:04:27.574Z,2.80
2022-09-04T13:07:24.415Z,2.43
2022-09-04T13:10:16.673Z,2.57
2022-09-04T13:13:12.913Z,2.53
2022-09-04T13:16:04.312Z,2.70
2022-09-04T13:19:00.288Z,2.53
2022-09-04T13:21:56.595Z,2.83
2022-09-04T13:24:52.398Z,2.67
2022-09-04T13:27:49.256Z,2.20
2022-09-04T13:30:42.241Z,2.57
2022-09-04T13:33:49.240Z,2.67
2022-09-04T13:36:39.674Z,2.30
2022-09-04T13:39:35.364Z,2.80
2022-09-04T13:42:30.867Z,3.00
2022-09-04T13:45:23.316Z,2.57
2022-09-04T13:48:13.083Z,2.33
2022-09-04T13:51:02.594Z,2.67
2022-09-04T13:54:03.980Z,2.77
2022-09-04T13:56:52.700Z,2.60
2022-09-04T13:59:39.140Z,2.43
2022-09-04T14:02:26.476Z,2.63
2022-09-04T14:05:16.451Z,2.50
2022-09-04T14:08:06.297Z,2.20
2022-09-04T14:11:03.126Z,2.77
2022-09-04T14:14:11.393Z,2.20
2022-09-04T14:16:58.442Z,2.30
2022-09-04T14:19:50.378Z,2.30
2022-09-04T14:22:43.329Z,2.60
2022-09-04T14:25:34.498Z,2.50
2022-09-04T14:28:23.607Z,2.37
2022-09-04T14:31:14.096Z,2.60
2022-09-04T14:34:04.766Z,2.43
2022-09-04T14:36:56.659Z,2.50
2022-09-04T14:39:48.490Z,2.50
2022-09-04T14:42:42.595Z,2.60
2022-09-04T14:45:48.944Z,2.97
2022-09-04T14:48:40.379Z,2.40
2022-09-04T14:51:33.555Z,2.30
2022-09-04T14:54:25.057Z,2.30
2022-09-04T14:57:17.810Z,2.50
2022-09-04T15:00:10.181Z,2.43
2022-09-04T15:03:00.612Z,2.30
2022-09-04T15:05:51.580Z,2.60
2022-09-04T15:08:40.857Z,2.67
2022-09-04T15:11:31.581Z,2.50
2022-09-04T15:14:28.495Z,2.30
2022-09-04T15:17:26.221Z,2.63
2022-09-04T15:20:16.972Z,2.77
2022-09-04T15:23:07.010Z,2.57
2022-09-04T15:25:59.098Z,2.70
2022-09-04T15:28:48.278Z,2.63
2022-09-04T15:31:36.971Z,2.53
2022-09-04T15:34:25.976Z,2.40
2022-09-04T15:37:14.532Z,2.43
2022-09-04T15:40:04.436Z,2.40
2022-09-04T15:42:58.719Z,2.27
2022-09-04T15:45:47.627Z,2.33
2022-09-04T15:48:41.741Z,2.87
2022-09-04T15:51:37.153Z,2.20
2022-09-04T15:54:31.101Z,2.20
2022-09-04T15:57:19.970Z,2.40
2022-09-04T16:00:11.408Z,2.13
2022-09-04T16:03:02.361Z,2.70
2022-09-04T16:05:52.065Z,2.37
2022-09-04T16:08:42.846Z,2.03
2022-09-04T16:11:32.483Z,2.73
2022-09-04T16:14:21.427Z,2.20
2022-09-04T16:17:11.964Z,2.60
2022-09-04T16:20:01.194Z,2.20
2022-09-04T16:22:50.670Z,2.60
2022-09-04T16:25:39.830Z,2.37
2022-09-04T16:28:29.499Z,1.87
2022-09-04T16:31:16.817Z,2.50
2022-09-04T16:34:08.090Z,2.60
2022-09-04T16:37:02.001Z,2.67
2022-09-04T16:39:56.876Z,2.70
2022-09-04T16:42:45.517Z,2.60
2022-09-04T16:45:34.635Z,2.50
2022-09-04T16:48:34.901Z,2.50
2022-09-04T16:51:41.305Z,2.67
2022-09-04T16:54:31.578Z,2.50
2022-09-04T16:57:21.549Z,2.87
2022-09-04T17:00:10.354Z,2.97
2022-09-04T17:02:59.334Z,2.33
2022-09-04T17:05:49.444Z,2.70
2022-09-04T17:08:37.875Z,2.80
2022-09-04T17:11:31.099Z,3.17
2022-09-04T17:14:21.667Z,3.07
2022-09-04T17:17:31.331Z,2.97
2022-09-04T17:20:22.850Z,2.67
2022-09-04T17:29:00.733Z,2.70
2022-09-04T17:29:19.070Z,3.10
2022-09-04T17:29:50.425Z,3.57
2022-09-04T17:36:16.311Z,2.77
2022-09-04T17:40:47.772Z,2.60
2022-09-04T17:40:56.941Z,3.77
2022-09-04T17:42:10.371Z,2.93
2022-09-04T17:45:03.708Z,2.63
2022-09-04T17:48:02.017Z,3.10
2022-09-04T17:50:50.502Z,2.47
2022-09-04T17:53:39.394Z,3.20
2022-09-04T17:56:28.122Z,2.43
2022-09-04T17:59:19.885Z,3.33
2022-09-04T18:02:14.245Z,2.83
2022-09-04T18:05:03.592Z,2.87
2022-09-04T18:08:08.100Z,2.57
2022-09-04T18:10:58.863Z,2.50
2022-09-04T18:13:53.374Z,2.63
2022-09-04T18:16:59.550Z,3.53
2022-09-04T18:20:05.844Z,2.40
2022-09-04T18:23:10.860Z,2.80
2022-09-04T18:26:00.628Z,2.50
2022-09-04T18:28:52.222Z,4.10
2022-09-04T18:37:09.935Z,3.20
2022-09-04T18:37:25.491Z,2.97
2022-09-04T18:38:03.049Z,2.60
2022-09-04T18:43:41.474Z,2.73
2022-09-04T18:50:25.320Z,2.90
2022-09-04T18:50:39.225Z,2.93
2022-09-04T18:53:43.577Z,2.87
2022-09-04T18:56:30.673Z,3.27
2022-09-04T18:59:19.911Z,3.20
2022-09-04T19:02:14.542Z,5.27
2022-09-04T19:05:01.832Z,4.07
2022-09-04T19:07:49.459Z,4.40
2022-09-04T19:10:38.866Z,3.53
2022-09-04T19:13:27.425Z,2.73
2022-09-04T19:16:15.378Z,3.40
2022-09-04T19:19:04.195Z,2.60
2022-09-04T19:21:58.442Z,3.50
2022-09-04T19:24:51.730Z,2.67
2022-09-04T19:27:40.343Z,2.67
2022-09-04T19:30:27.754Z,2.60
2022-09-04T19:33:18.586Z,2.47
2022-09-04T19:36:08.382Z,2.43
2022-09-04T19:45:55.631Z,2.30
2022-09-04T19:46:02.355Z,2.30
2022-09-04T19:46:14.128Z,2.03
2022-09-04T19:48:43.043Z,2.40
2022-09-04T19:53:30.876Z,2.87
2022-09-04T19:55:25.078Z,2.20
2022-09-04T19:58:12.883Z,2.53
2022-09-04T20:01:01.690Z,2.40
2022-09-04T20:03:49.376Z,2.20
2022-09-04T20:06:38.358Z,2.80
2022-09-04T20:09:27.330Z,3.67
2022-09-04T20:12:18.074Z,5.20
2022-09-04T20:15:11.822Z,4.10
2022-09-04T20:18:04.168Z,5.10
2022-09-04T20:20:56.237Z,4.13
2022-09-04T20:23:44.772Z,4.87
2022-09-04T20:26:32.181Z,3.50
2022-09-04T20:29:20.124Z,3.33
2022-09-04T20:32:10.052Z,2.97
2022-09-04T20:35:13.819Z,2.60
2022-09-04T20:38:03.490Z,2.80
2022-09-04T20:40:52.222Z,2.83
2022-09-04T20:43:42.471Z,2.87
2022-09-04T20:52:40.399Z,2.30
2022-09-04T20:52:56.700Z,2.53
2022-09-04T20:53:13.478Z,2.50
2022-09-04T20:56:09.363Z,2.60
2022-09-04T21:03:10.665Z,2.67
2022-09-04T21:03:22.526Z,2.33
2022-09-04T21:05:54.088Z,2.87
2022-09-04T21:08:52.042Z,2.60
2022-09-04T21:11:41.939Z,2.93
2022-09-04T21:14:45.009Z,3.10
2022-09-04T21:17:41.326Z,2.90
2022-09-04T21:20:35.439Z,2.63
2022-09-04T21:23:47.788Z,2.50
2022-09-04T21:26:55.876Z,2.80
2022-09-04T21:29:59.495Z,2.57
2022-09-04T21:32:58.670Z,2.60
2022-09-04T21:36:26.357Z,2.53
2022-09-04T21:39:29.678Z,2.27
2022-09-04T21:42:28.693Z,2.10
2022-09-04T21:45:28.303Z,2.77
2022-09-04T21:48:30.355Z,2.63
2022-09-04T21:51:31.746Z,3.10
2022-09-04T21:54:38.105Z,3.00
2022-09-04T22:02:31.849Z,2.40
2022-09-04T22:02:43.255Z,2.50
2022-09-04T22:04:07.267Z,2.43
2022-09-04T22:11:31.397Z,2.60
2022-09-04T22:13:34.247Z,2.63
2022-09-04T22:13:37.244Z,2.60
2022-09-04T22:16:48.227Z,2.33
2022-09-04T22:19:50.519Z,2.60
2022-09-04T22:22:47.151Z,2.27
2022-09-04T22:25:45.053Z,2.80
2022-09-04T22:28:49.351Z,2.47
2022-09-04T22:31:56.503Z,2.40
2022-09-04T22:35:17.405Z,2.87
2022-09-04T22:38:30.356Z,2.30
2022-09-04T22:41:25.050Z,2.10
2022-09-04T22:44:18.415Z,2.27
2022-09-04T22:47:26.797Z,2.23
2022-09-04T22:50:25.269Z,2.40
2022-09-04T22:53:52.242Z,2.33
2022-09-04T22:56:46.821Z,2.77
2022-09-04T22:59:39.523Z,2.67
2022-09-04T23:06:05.038Z,2.60
2022-09-04T23:13:51.733Z,2.47
2022-09-04T23:13:56.780Z,2.60
2022-09-04T23:15:48.531Z,2.50
2022-09-04T23:21:36.056Z,2.33
2022-09-04T23:26:49.807Z,2.73
2022-09-04T23:26:58.714Z,2.60
2022-09-04T23:28:32.995Z,2.73
2022-09-04T23:31:33.618Z,2.50
2022-09-04T23:34:34.578Z,2.93
2022-09-04T23:37:38.213Z,2.47
2022-09-04T23:40:46.953Z,3.13
2022-09-04T23:43:45.689Z,2.80
2022-09-04T23:46:37.760Z,2.63
2022-09-04T23:49:42.671Z,2.83
2022-09-04T23:52:48.964Z,2.33
2022-09-04T23:55:50.841Z,2.80
2022-09-04T23:59:00.877Z,2.83
